Time,TemperatureF,DewpointF,PressureIn,WindDirection,WindDirectionDegrees,WindSpeedMPH,WindSpeedGustMPH,Humidity,HourlyPrecipIn,Conditions,Clouds,dailyrainin,SoftwareType,DateUTC
2013-04-16 00:06:00,46.4,40.0,29.71,WSW,255,11.0,17.0,79,0.00,,,0.00,weatherlink.com 1.10,2013-04-16 07:06:00,
2013-04-16 00:21:00,46.4,40.0,29.72,SW,231,13.0,21.0,79,0.00,,,0.00,weatherlink.com 1.10,2013-04-16 07:21:00,
2013-04-16 00:36:00,46.7,40.0,29.73,WSW,246,15.0,22.0,78,0.00,,,0.00,weatherlink.com 1.10,2013-04-16 07:36:00,
2013-04-16 00:51:00,46.9,40.0,29.73,WSW,250,9.0,21.0,77,0.00,,,0.00,weatherlink.com 1.10,2013-04-16 07:51:00,
2013-04-16 01:06:00,47.1,40.0,29.73,West,263,5.0,17.0,76,0.00,,,0.00,weatherlink.com 1.10,2013-04-16 08:06:00,
2013-04-16 01:21:00,47.8,39.0,29.73,WSW,240,3.0,17.0,72,0.00,,,0.00,weatherlink.com 1.10,2013-04-16 08:21:00,
2013-04-16 01:37:00,47.6,39.0,29.73,WSW,245,9.0,15.0,73,0.00,,,0.00,weatherlink.com 1.10,2013-04-16 08:37:00,
2013-04-16 01:52:00,47.2,39.0,29.73,WSW,252,11.0,20.0,74,0.00,,,0.00,weatherlink.com 1.10,2013-04-16 08:52:00,
2013-04-16 02:07:00,45.8,35.0,29.73,SW,229,4.0,13.0,66,0.00,,,0.00,weatherlink.com 1.10,2013-04-16 09:07:00,
2013-04-16 02:22:00,45.7,35.0,29.73,West,279,6.0,11.0,66,0.00,,,0.00,weatherlink.com 1.10,2013-04-16 09:22:00,
2013-04-16 02:37:00,45.8,36.0,29.73,SSW,211,7.0,12.0,68,0.00,,,0.00,weatherlink.com 1.10,2013-04-16 09:37:00,
2013-04-16 02:52:00,45.7,36.0,29.74,West,260,4.0,11.0,69,0.00,,,0.00,weatherlink.com 1.10,2013-04-16 09:52:00,
2013-04-16 03:07:00,45.6,35.0,29.74,NNW,327,7.0,13.0,66,0.00,,,0.00,weatherlink.com 1.10,2013-04-16 10:07:00,
2013-04-16 03:22:00,44.7,32.0,29.75,WNW,297,8.0,16.0,62,0.00,,,0.00,weatherlink.com 1.10,2013-04-16 10:22:00,
2013-04-16 03:37:00,43.8,30.0,29.75,WNW,287,19.0,23.0,58,0.00,,,0.00,weatherlink.com 1.10,2013-04-16 10:37:00,
2013-04-16 03:52:00,43.0,27.0,29.75,NW,306,15.0,25.0,54,0.00,,,0.00,weatherlink.com 1.10,2013-04-16 10:52:00,
2013-04-16 04:07:00,42.6,27.0,29.75,SW,233,10.0,18.0,55,0.00,,,0.00,weatherlink.com 1.10,2013-04-16 11:07:00,
2013-04-16 04:23:00,42.4,27.0,29.76,WNW,283,4.0,14.0,54,0.00,,,0.00,weatherlink.com 1.10,2013-04-16 11:23:00,
2013-04-16 04:37:00,42.1,26.0,29.77,WSW,248,10.0,19.0,53,0.00,,,0.00,weatherlink.com 1.10,2013-04-16 11:37:00,
2013-04-16 04:52:00,41.5,25.0,29.77,WNW,283,5.0,18.0,52,0.00,,,0.00,weatherlink.com 1.10,2013-04-16 11:52:00,
2013-04-16 05:07:00,40.9,24.0,29.77,WSW,257,7.0,18.0,52,0.00,,,0.00,weatherlink.com 1.10,2013-04-16 12:07:00,
2013-04-16 05:22:00,40.5,24.0,29.78,WNW,299,7.0,16.0,53,0.00,,,0.00,weatherlink.com 1.10,2013-04-16 12:22:00,
2013-04-16 05:37:00,40.4,24.0,29.79,West,263,7.0,14.0,52,0.00,,,0.00,weatherlink.com 1.10,2013-04-16 12:37:00,
2013-04-16 05:52:00,40.1,24.0,29.79,WSW,255,8.0,15.0,52,0.00,,,0.00,weatherlink.com 1.10,2013-04-16 12:52:00,
2013-04-16 06:07:00,39.8,23.0,29.80,WNW,293,6.0,17.0,52,0.00,,,0.00,weatherlink.com 1.10,2013-04-16 13:07:00,
2013-04-16 06:22:00,39.6,24.0,29.80,WNW,290,12.0,18.0,53,0.00,,,0.00,weatherlink.com 1.10,2013-04-16 13:22:00,
2013-04-16 06:37:00,39.7,24.0,29.81,WNW,300,9.0,19.0,53,0.00,,,0.00,weatherlink.com 1.10,2013-04-16 13:37:00,
2013-04-16 06:52:00,39.7,23.0,29.82,WNW,297,14.0,21.0,52,0.00,,,0.00,weatherlink.com 1.10,2013-04-16 13:52:00,
2013-04-16 07:07:00,39.8,23.0,29.83,WNW,287,9.0,18.0,52,0.00,,,0.00,weatherlink.com 1.10,2013-04-16 14:07:00,
2013-04-16 07:22:00,40.7,23.0,29.82,West,271,9.0,19.0,50,0.00,,,0.00,weatherlink.com 1.10,2013-04-16 14:22:00,
2013-04-16 07:38:00,40.8,24.0,29.83,WNW,288,11.0,24.0,51,0.00,,,0.00,weatherlink.com 1.10,2013-04-16 14:38:00,
2013-04-16 07:53:00,41.1,24.0,29.85,WSW,242,13.0,16.0,51,0.00,,,0.00,weatherlink.com 1.10,2013-04-16 14:53:00,
2013-04-16 08:23:00,42.7,23.0,29.85,West,271,9.0,20.0,46,0.00,,,0.00,weatherlink.com 1.10,2013-04-16 15:23:00,
2013-04-16 08:38:00,43.7,23.0,29.86,WSW,250,8.0,17.0,45,0.00,,,0.00,weatherlink.com 1.10,2013-04-16 15:38:00,
2013-04-16 08:53:00,44.9,23.0,29.86,WNW,299,3.0,16.0,43,0.00,,,0.00,weatherlink.com 1.10,2013-04-16 15:53:00,
2013-04-16 09:08:00,45.7,24.0,29.86,West,271,7.0,18.0,42,0.00,,,0.00,weatherlink.com 1.10,2013-04-16 16:08:00,
2013-04-16 09:23:00,46.2,24.0,29.86,NW,304,6.0,18.0,41,0.00,,,0.00,weatherlink.com 1.10,2013-04-16 16:23:00,
2013-04-16 09:38:00,46.6,24.0,29.86,WNW,283,9.0,21.0,41,0.00,,,0.00,weatherlink.com 1.10,2013-04-16 16:38:00,
2013-04-16 09:53:00,47.5,25.0,29.86,WNW,301,14.0,21.0,41,0.00,,,0.00,weatherlink.com 1.10,2013-04-16 16:53:00,
2013-04-16 10:08:00,48.0,25.0,29.86,West,276,16.0,24.0,41,0.00,,,0.00,weatherlink.com 1.10,2013-04-16 17:08:00,
2013-04-16 10:23:00,48.9,25.0,29.86,WNW,285,9.0,20.0,39,0.00,,,0.00,weatherlink.com 1.10,2013-04-16 17:23:00,
2013-04-16 10:38:00,49.9,24.0,29.87,NW,319,10.0,20.0,37,0.00,,,0.00,weatherlink.com 1.10,2013-04-16 17:38:00,
2013-04-16 10:53:00,50.9,25.0,29.86,West,276,6.0,19.0,37,0.00,,,0.00,weatherlink.com 1.10,2013-04-16 17:53:00,
2013-04-16 11:08:00,51.2,22.0,29.86,WNW,302,11.0,18.0,32,0.00,,,0.00,weatherlink.com 1.10,2013-04-16 18:08:00,
2013-04-16 11:23:00,52.7,25.0,29.86,WNW,287,9.0,20.0,34,0.00,,,0.00,weatherlink.com 1.10,2013-04-16 18:23:00,
2013-04-16 11:38:00,52.7,24.0,29.86,West,277,12.0,20.0,33,0.00,,,0.00,weatherlink.com 1.10,2013-04-16 18:38:00,
2013-04-16 11:53:00,52.8,24.0,29.86,WSW,246,13.0,20.0,32,0.00,,,0.00,weatherlink.com 1.10,2013-04-16 18:53:00,
2013-04-16 12:08:00,54.6,23.0,29.85,WNW,285,16.0,21.0,29,0.00,,,0.00,weatherlink.com 1.10,2013-04-16 19:08:00,
2013-04-16 12:23:00,54.3,22.0,29.84,NNW,336,16.0,19.0,28,0.00,,,0.00,weatherlink.com 1.10,2013-04-16 19:23:00,
2013-04-16 12:38:00,54.2,21.0,29.84,NW,304,11.0,22.0,27,0.00,,,0.00,weatherlink.com 1.10,2013-04-16 19:38:00,
2013-04-16 12:53:00,55.3,19.0,29.84,SW,226,8.0,18.0,24,0.00,,,0.00,weatherlink.com 1.10,2013-04-16 19:53:00,
2013-04-16 13:08:00,55.3,19.0,29.84,NW,306,10.0,22.0,24,0.00,,,0.00,weatherlink.com 1.10,2013-04-16 20:08:00,
2013-04-16 13:23:00,56.0,20.0,29.83,NW,315,9.0,25.0,25,0.00,,,0.00,weatherlink.com 1.10,2013-04-16 20:23:00,
2013-04-16 13:38:00,56.1,21.0,29.83,WSW,243,18.0,19.0,25,0.00,,,0.00,weatherlink.com 1.10,2013-04-16 20:38:00,
2013-04-16 13:53:00,55.8,21.0,29.83,WNW,302,10.0,23.0,26,0.00,,,0.00,weatherlink.com 1.10,2013-04-16 20:53:00,
2013-04-16 14:08:00,55.8,20.0,29.84,WNW,299,8.0,24.0,25,0.00,,,0.00,weatherlink.com 1.10,2013-04-16 21:08:00,
2013-04-16 14:23:00,56.1,20.0,29.84,NW,312,7.0,26.0,24,0.00,,,0.00,weatherlink.com 1.10,2013-04-16 21:23:00,
2013-04-16 14:38:00,56.3,19.0,29.84,NW,309,12.0,22.0,23,0.00,,,0.00,weatherlink.com 1.10,2013-04-16 21:38:00,
2013-04-16 14:53:00,56.8,17.0,29.84,WNW,289,15.0,22.0,21,0.00,,,0.00,weatherlink.com 1.10,2013-04-16 21:53:00,
2013-04-16 15:08:00,57.1,20.0,29.83,WNW,293,15.0,21.0,24,0.00,,,0.00,weatherlink.com 1.10,2013-04-16 22:08:00,
2013-04-16 15:23:00,57.0,18.0,29.83,West,269,10.0,20.0,22,0.00,,,0.00,weatherlink.com 1.10,2013-04-16 22:23:00,
2013-04-16 15:38:00,57.4,22.0,29.83,West,273,9.0,22.0,25,0.00,,,0.00,weatherlink.com 1.10,2013-04-16 22:38:00,
2013-04-16 15:53:00,56.6,23.0,29.82,WNW,294,14.0,22.0,27,0.00,,,0.00,weatherlink.com 1.10,2013-04-16 22:53:00,
2013-04-16 16:08:00,56.5,23.0,29.82,NW,308,12.0,25.0,27,0.00,,,0.00,weatherlink.com 1.10,2013-04-16 23:08:00,
2013-04-16 16:23:00,56.3,22.0,29.83,WNW,290,16.0,21.0,26,0.00,,,0.00,weatherlink.com 1.10,2013-04-16 23:23:00,
2013-04-16 16:38:00,56.7,21.0,29.83,NNW,330,16.0,22.0,25,0.00,,,0.00,weatherlink.com 1.10,2013-04-16 23:38:00,
2013-04-16 16:53:00,56.3,22.0,29.83,WNW,301,15.0,23.0,26,0.00,,,0.00,weatherlink.com 1.10,2013-04-16 23:53:00,
2013-04-16 17:08:00,56.1,22.0,29.84,West,278,7.0,24.0,27,0.00,,,0.00,weatherlink.com 1.10,2013-04-17 00:08:00,
2013-04-16 17:23:00,56.2,22.0,29.84,NW,304,11.0,21.0,27,0.00,,,0.00,weatherlink.com 1.10,2013-04-17 00:23:00,
2013-04-16 17:38:00,55.7,20.0,29.84,NNW,336,11.0,22.0,25,0.00,,,0.00,weatherlink.com 1.10,2013-04-17 00:38:00,
2013-04-16 17:53:00,55.1,19.0,29.84,WNW,287,11.0,23.0,24,0.00,,,0.00,weatherlink.com 1.10,2013-04-17 00:53:00,
2013-04-16 18:08:00,54.2,17.0,29.84,WNW,290,13.0,24.0,23,0.00,,,0.00,weatherlink.com 1.10,2013-04-17 01:08:00,
2013-04-16 18:24:00,54.2,20.0,29.85,WNW,287,12.0,22.0,26,0.00,,,0.00,weatherlink.com 1.10,2013-04-17 01:24:00,
2013-04-16 18:39:00,53.5,19.0,29.86,WNW,300,12.0,21.0,26,0.00,,,0.00,weatherlink.com 1.10,2013-04-17 01:39:00,
2013-04-16 18:54:00,52.8,19.0,29.86,WNW,283,14.0,20.0,26,0.00,,,0.00,weatherlink.com 1.10,2013-04-17 01:54:00,
2013-04-16 19:09:00,52.0,18.0,29.86,WNW,283,9.0,17.0,26,0.00,,,0.00,weatherlink.com 1.10,2013-04-17 02:09:00,
2013-04-16 19:24:00,51.2,17.0,29.87,WNW,287,9.0,19.0,26,0.00,,,0.00,weatherlink.com 1.10,2013-04-17 02:24:00,
2013-04-16 19:39:00,50.7,18.0,29.88,West,270,9.0,15.0,27,0.00,,,0.00,weatherlink.com 1.10,2013-04-17 02:39:00,
2013-04-16 19:54:00,50.3,16.0,29.88,West,281,11.0,19.0,26,0.00,,,0.00,weatherlink.com 1.10,2013-04-17 02:54:00,
2013-04-16 20:09:00,49.9,15.0,29.89,West,272,6.0,19.0,25,0.00,,,0.00,weatherlink.com 1.10,2013-04-17 03:09:00,
2013-04-16 20:24:00,49.6,16.0,29.90,NW,304,5.0,20.0,26,0.00,,,0.00,weatherlink.com 1.10,2013-04-17 03:24:00,
2013-04-16 20:39:00,49.3,16.0,29.90,West,262,6.0,15.0,27,0.00,,,0.00,weatherlink.com 1.10,2013-04-17 03:39:00,
2013-04-16 20:54:00,48.9,18.0,29.91,WNW,293,6.0,16.0,29,0.00,,,0.00,weatherlink.com 1.10,2013-04-17 03:54:00,
2013-04-16 21:09:00,48.5,20.0,29.92,WNW,285,5.0,13.0,32,0.00,,,0.00,weatherlink.com 1.10,2013-04-17 04:09:00,
2013-04-16 21:24:00,48.3,20.0,29.92,WNW,295,13.0,16.0,32,0.00,,,0.00,weatherlink.com 1.10,2013-04-17 04:24:00,
2013-04-16 21:39:00,48.0,20.0,29.93,WNW,291,5.0,14.0,33,0.00,,,0.00,weatherlink.com 1.10,2013-04-17 04:39:00,
2013-04-16 21:54:00,47.9,21.0,29.93,West,281,8.0,14.0,35,0.00,,,0.00,weatherlink.com 1.10,2013-04-17 04:54:00,
2013-04-16 22:09:00,47.7,20.0,29.94,NW,306,5.0,14.0,34,0.00,,,0.00,weatherlink.com 1.10,2013-04-17 05:09:00,
2013-04-16 22:24:00,47.7,21.0,29.94,WNW,288,5.0,12.0,35,0.00,,,0.00,weatherlink.com 1.10,2013-04-17 05:24:00,
2013-04-16 22:39:00,47.3,21.0,29.94,NW,315,6.0,12.0,35,0.00,,,0.00,weatherlink.com 1.10,2013-04-17 05:39:00,
2013-04-16 22:54:00,46.7,21.0,29.94,WNW,286,5.0,10.0,36,0.00,,,0.00,weatherlink.com 1.10,2013-04-17 05:54:00,
2013-04-16 23:09:00,46.3,21.0,29.94,WNW,295,8.0,10.0,37,0.00,,,0.00,weatherlink.com 1.10,2013-04-17 06:09:00,
2013-04-16 23:24:00,46.8,21.0,29.95,WNW,297,9.0,16.0,36,0.00,,,0.00,weatherlink.com 1.10,2013-04-17 06:24:00,
2013-04-16 23:39:00,47.2,21.0,29.95,West,276,4.0,19.0,35,0.00,,,0.00,weatherlink.com 1.10,2013-04-17 06:39:00,
2013-04-16 23:54:00,47.4,21.0,29.96,West,272,6.0,13.0,35,0.00,,,0.00,weatherlink.com 1.10,2013-04-17 06:54:00,